createdAt,value
2018-01-11T00:00:24.993Z,0
2018-01-11T00:01:34.708Z,0
2018-01-11T00:02:44.661Z,0
2018-01-11T00:03:54.357Z,0
2018-01-11T00:05:04.312Z,0
2018-01-11T00:06:14.262Z,0
2018-01-11T00:07:24.330Z,0
2018-01-11T00:08:34.276Z,0
2018-01-11T00:09:44.220Z,0
2018-01-11T00:10:54.162Z,0
2018-01-11T00:12:04.108Z,0
2018-01-11T00:13:14.062Z,0
2018-01-11T00:14:24.001Z,0
2018-01-11T00:15:33.947Z,0
2018-01-11T00:16:43.904Z,0
2018-01-11T00:17:53.854Z,0
2018-01-11T00:19:03.793Z,0
2018-01-11T00:20:13.807Z,0
2018-01-11T00:21:23.497Z,0
2018-01-11T00:22:33.453Z,0
2018-01-11T00:23:43.422Z,0
2018-01-11T00:24:53.427Z,0
2018-01-11T00:26:03.376Z,0
2018-01-11T00:27:13.348Z,0
2018-01-11T00:28:23.290Z,0
2018-01-11T00:29:33.266Z,0
2018-01-11T00:30:43.225Z,0
2018-01-11T00:31:52.908Z,0
2018-01-11T00:33:02.863Z,0
2018-01-11T00:34:12.813Z,0
2018-01-11T00:35:22.564Z,0
2018-01-11T00:36:32.506Z,0
2018-01-11T00:37:42.455Z,0
2018-01-11T00:38:52.164Z,0
2018-01-11T00:40:01.608Z,0
2018-01-11T00:41:11.315Z,0
2018-01-11T00:42:21.008Z,0
2018-01-11T00:43:30.959Z,0
2018-01-11T00:44:40.911Z,0
2018-01-11T00:45:50.853Z,0
2018-01-11T00:47:00.803Z,0
2018-01-11T00:48:10.502Z,0
2018-01-11T00:49:20.470Z,0
2018-01-11T00:50:30.150Z,0
2018-01-11T00:51:40.144Z,0
2018-01-11T00:52:49.826Z,0
2018-01-11T00:53:59.273Z,0
2018-01-11T00:55:08.973Z,0
2018-01-11T00:56:18.908Z,0
2018-01-11T00:57:28.605Z,0
2018-01-11T00:58:38.290Z,0
2018-01-11T00:59:48.242Z,0
2018-01-11T01:00:58.188Z,0
2018-01-11T01:02:07.896Z,0
2018-01-11T01:03:17.584Z,0
2018-01-11T01:04:27.010Z,0
2018-01-11T01:05:36.954Z,0
2018-01-11T01:06:46.898Z,0
2018-01-11T01:07:56.864Z,0
2018-01-11T01:09:06.835Z,0
2018-01-11T01:10:16.782Z,0
2018-01-11T01:11:26.725Z,0
2018-01-11T01:12:36.654Z,0
2018-01-11T01:13:46.341Z,0
2018-01-11T01:14:56.032Z,0
2018-01-11T01:16:05.989Z,0
2018-01-11T01:17:15.930Z,0
2018-01-11T01:18:25.622Z,0
2018-01-11T01:19:35.588Z,0
2018-01-11T01:20:45.531Z,0
2018-01-11T01:21:55.216Z,0
2018-01-11T01:23:04.905Z,0
2018-01-11T01:24:14.852Z,0
2018-01-11T01:25:24.539Z,0
2018-01-11T01:26:34.490Z,0
2018-01-11T01:27:44.186Z,0
2018-01-11T01:28:53.922Z,0
2018-01-11T01:30:03.612Z,0
2018-01-11T01:31:13.563Z,0
2018-01-11T01:32:23.512Z,0
2018-01-11T01:33:32.696Z,0
2018-01-11T01:34:42.659Z,0
2018-01-11T01:35:52.604Z,0
2018-01-11T01:37:02.289Z,0
2018-01-11T01:38:12.291Z,0
2018-01-11T01:39:22.229Z,0
2018-01-11T01:40:32.176Z,0
2018-01-11T01:41:42.125Z,0
2018-01-11T01:42:52.070Z,0
2018-01-11T01:44:02.040Z,0
2018-01-11T01:45:11.751Z,0
2018-01-11T01:46:21.702Z,0
2018-01-11T01:47:31.136Z,0
2018-01-11T01:48:40.822Z,0
2018-01-11T01:49:50.256Z,0
2018-01-11T01:51:00.200Z,0
2018-01-11T01:52:10.149Z,0
2018-01-11T01:53:20.094Z,0
2018-01-11T01:54:30.042Z,0
2018-01-11T01:55:39.995Z,0
2018-01-11T01:56:49.694Z,0
2018-01-11T01:57:59.387Z,0
2018-01-11T01:59:09.592Z,0
2018-01-11T02:00:19.555Z,0
2018-01-11T02:01:29.249Z,0
2018-01-11T02:02:39.213Z,0
2018-01-11T02:03:49.167Z,0
2018-01-11T02:04:58.846Z,0
2018-01-11T02:06:08.601Z,0
2018-01-11T02:07:18.294Z,0
2018-01-11T02:08:28.238Z,0
2018-01-11T02:09:38.197Z,0
2018-01-11T02:10:47.880Z,0
2018-01-11T02:11:57.826Z,0
2018-01-11T02:13:07.517Z,0
2018-01-11T02:14:17.482Z,0
2018-01-11T02:15:27.440Z,0
2018-01-11T02:16:37.123Z,0
2018-01-11T02:17:47.070Z,0
2018-01-11T02:18:56.776Z,0
2018-01-11T02:20:06.978Z,0
2018-01-11T02:21:16.937Z,0
2018-01-11T02:22:26.888Z,0
2018-01-11T02:23:36.828Z,0
2018-01-11T02:24:46.776Z,0
2018-01-11T02:25:56.727Z,0
2018-01-11T02:27:06.677Z,0
2018-01-11T02:28:16.624Z,0
2018-01-11T02:29:26.572Z,0
2018-01-11T02:30:36.579Z,0
2018-01-11T02:31:46.526Z,0
2018-01-11T02:32:56.472Z,0
2018-01-11T02:34:06.420Z,0
2018-01-11T02:35:16.372Z,0
2018-01-11T02:36:26.384Z,0
2018-01-11T02:37:36.351Z,0
2018-01-11T02:38:46.312Z,0
2018-01-11T02:39:56.264Z,0
2018-01-11T02:41:05.956Z,0
2018-01-11T02:42:15.661Z,0
2018-01-11T02:43:25.622Z,0
2018-01-11T02:44:35.324Z,0
2018-01-11T02:45:45.304Z,0
2018-01-11T02:46:55.506Z,0
2018-01-11T02:48:05.752Z,0
2018-01-11T02:49:15.505Z,0
2018-01-11T02:50:25.448Z,0
2018-01-11T02:51:35.133Z,0
2018-01-11T02:52:45.323Z,0
2018-01-11T02:53:55.282Z,0
2018-01-11T02:55:05.217Z,0
2018-01-11T02:56:15.178Z,0
2018-01-11T02:57:25.138Z,0
2018-01-11T02:58:35.100Z,0
2018-01-11T02:59:45.055Z,0
2018-01-11T03:00:54.773Z,0
2018-01-11T03:02:04.476Z,0
2018-01-11T03:03:14.151Z,0
2018-01-11T03:04:24.095Z,0
2018-01-11T03:05:34.033Z,0
2018-01-11T03:06:43.722Z,0
2018-01-11T03:07:53.659Z,0
2018-01-11T03:09:03.610Z,0
2018-01-11T03:10:13.557Z,0
2018-01-11T03:11:23.011Z,0
2018-01-11T03:12:32.708Z,0
2018-01-11T03:13:42.912Z,0
2018-01-11T03:14:52.343Z,0
2018-01-11T03:16:02.284Z,0
2018-01-11T03:17:12.233Z,0
2018-01-11T03:18:21.921Z,0
2018-01-11T03:19:31.858Z,0
2018-01-11T03:20:41.547Z,0
2018-01-11T03:21:51.482Z,0
2018-01-11T03:23:01.426Z,0
2018-01-11T03:24:10.859Z,0
2018-01-11T03:25:20.549Z,0
2018-01-11T03:26:30.340Z,0
2018-01-11T03:27:40.293Z,0
2018-01-11T03:28:49.989Z,0
2018-01-11T03:29:59.686Z,0
2018-01-11T03:31:09.125Z,0
2018-01-11T03:32:19.068Z,0
2018-01-11T03:33:29.020Z,0
2018-01-11T03:34:38.704Z,0
2018-01-11T03:35:48.391Z,0
2018-01-11T03:36:58.341Z,0
2018-01-11T03:38:08.293Z,0
2018-01-11T03:39:18.234Z,0
2018-01-11T03:40:27.927Z,0
2018-01-11T03:41:37.879Z,0
2018-01-11T03:42:47.580Z,0
2018-01-11T03:43:57.267Z,0
2018-01-11T03:45:06.976Z,0
2018-01-11T03:46:16.457Z,0
2018-01-11T03:47:26.148Z,0
2018-01-11T03:48:36.081Z,0
2018-01-11T03:49:46.024Z,0
2018-01-11T03:50:55.973Z,0
2018-01-11T03:52:05.924Z,0
2018-01-11T03:53:15.106Z,0
2018-01-11T03:54:25.055Z,0
2018-01-11T03:55:34.752Z,0
2018-01-11T03:56:44.690Z,0
2018-01-11T03:57:54.129Z,0
2018-01-11T03:59:04.075Z,0
2018-01-11T04:00:13.521Z,0
2018-01-11T04:01:23.262Z,0
2018-01-11T04:02:33.204Z,0
2018-01-11T04:03:43.140Z,0
2018-01-11T04:04:52.824Z,0
2018-01-11T04:06:02.519Z,0
2018-01-11T04:07:12.463Z,0
2018-01-11T04:08:22.151Z,0
2018-01-11T04:09:32.100Z,0
2018-01-11T04:10:42.048Z,0
2018-01-11T04:11:51.991Z,0
2018-01-11T04:13:01.955Z,0
2018-01-11T04:14:11.393Z,0
2018-01-11T04:15:20.831Z,0
2018-01-11T04:16:30.789Z,0
2018-01-11T04:17:40.756Z,0
2018-01-11T04:18:50.505Z,0
2018-01-11T04:20:00.448Z,0
2018-01-11T04:21:10.398Z,0
2018-01-11T04:22:20.347Z,0
2018-01-11T04:23:30.034Z,0
2018-01-11T04:24:39.981Z,0
2018-01-11T04:25:49.932Z,0
2018-01-11T04:26:59.675Z,0
2018-01-11T04:28:09.620Z,0
2018-01-11T04:29:19.568Z,0
2018-01-11T04:30:29.524Z,0
2018-01-11T04:31:39.220Z,0
2018-01-11T04:32:49.153Z,0
2018-01-11T04:33:59.109Z,0
2018-01-11T04:35:09.074Z,0
2018-01-11T04:36:18.775Z,0
2018-01-11T04:37:28.732Z,0
2018-01-11T04:38:38.729Z,0
2018-01-11T04:39:48.670Z,0
2018-01-11T04:40:58.613Z,0
2018-01-11T04:42:08.563Z,0
2018-01-11T04:43:18.256Z,0
2018-01-11T04:44:27.939Z,0
2018-01-11T04:45:37.890Z,0
2018-01-11T04:46:47.831Z,0
2018-01-11T04:47:58.034Z,0
2018-01-11T04:49:07.739Z,0
2018-01-11T04:50:17.675Z,0
2018-01-11T04:51:27.623Z,0
2018-01-11T04:52:37.629Z,0
2018-01-11T04:53:47.358Z,0
2018-01-11T04:54:57.315Z,0
2018-01-11T04:56:07.267Z,0
2018-01-11T04:57:17.243Z,0
2018-01-11T04:58:27.190Z,0
2018-01-11T04:59:37.151Z,0
2018-01-11T05:00:46.838Z,0
2018-01-11T05:01:56.784Z,0
2018-01-11T05:03:06.471Z,0
2018-01-11T05:04:15.644Z,0
2018-01-11T05:05:25.593Z,0
2018-01-11T05:06:35.271Z,0
2018-01-11T05:07:45.229Z,0
2018-01-11T05:08:55.174Z,0
2018-01-11T05:10:05.112Z,0
2018-01-11T05:11:15.076Z,0
2018-01-11T05:12:24.889Z,0
2018-01-11T05:13:34.540Z,0
2018-01-11T05:14:44.485Z,0
2018-01-11T05:15:53.920Z,0
2018-01-11T05:17:03.614Z,0
2018-01-11T05:18:13.332Z,0
2018-01-11T05:19:23.277Z,0
2018-01-11T05:20:32.972Z,0
2018-01-11T05:21:42.662Z,0
2018-01-11T05:22:52.358Z,0
2018-01-11T05:24:02.305Z,0
2018-01-11T05:25:11.747Z,0
2018-01-11T05:26:21.438Z,0
2018-01-11T05:27:31.126Z,0
2018-01-11T05:28:41.076Z,0
2018-01-11T05:29:51.017Z,0
2018-01-11T05:31:00.707Z,0
2018-01-11T05:32:10.418Z,0
2018-01-11T05:33:20.355Z,0
2018-01-11T05:34:29.804Z,0
2018-01-11T05:35:39.745Z,0
2018-01-11T05:36:49.457Z,0
2018-01-11T05:37:59.156Z,0
2018-01-11T05:39:09.108Z,0
2018-01-11T05:40:19.048Z,0
2018-01-11T05:41:28.741Z,0
2018-01-11T05:42:38.679Z,0
2018-01-11T05:43:48.618Z,0
2018-01-11T05:44:58.570Z,0
2018-01-11T05:46:08.257Z,0
2018-01-11T05:47:17.692Z,0
2018-01-11T05:48:27.639Z,0
2018-01-11T05:49:37.100Z,0
2018-01-11T05:50:47.062Z,0
2018-01-11T05:51:56.768Z,0
2018-01-11T05:53:06.719Z,0
2018-01-11T05:54:16.657Z,0
2018-01-11T05:55:26.608Z,0
2018-01-11T05:56:36.291Z,0
2018-01-11T05:57:46.238Z,0
2018-01-11T05:58:55.661Z,0
2018-01-11T06:00:05.620Z,0
2018-01-11T06:01:15.579Z,0
2018-01-11T06:02:25.272Z,0
2018-01-11T06:03:35.216Z,0
2018-01-11T06:04:44.903Z,0
2018-01-11T06:05:54.904Z,0
2018-01-11T06:07:04.599Z,0
2018-01-11T06:08:14.294Z,0
2018-01-11T06:09:24.333Z,0
2018-01-11T06:10:34.018Z,0
2018-01-11T06:11:43.715Z,0
2018-01-11T06:12:53.661Z,0
2018-01-11T06:14:03.348Z,0
2018-01-11T06:15:13.295Z,0
2018-01-11T06:16:22.978Z,0
2018-01-11T06:17:32.930Z,0
2018-01-11T06:18:42.627Z,0
2018-01-11T06:19:52.327Z,0
2018-01-11T06:21:02.292Z,0
2018-01-11T06:22:11.990Z,0
2018-01-11T06:23:21.679Z,0
2018-01-11T06:24:31.616Z,0
2018-01-11T06:25:41.318Z,0
2018-01-11T06:26:51.258Z,0
2018-01-11T06:28:00.950Z,0
2018-01-11T06:29:10.901Z,0
2018-01-11T06:30:20.842Z,0
2018-01-11T06:31:30.543Z,0
2018-01-11T06:32:40.507Z,0
2018-01-11T06:33:50.461Z,0
2018-01-11T06:35:00.406Z,0
2018-01-11T06:36:10.351Z,0
2018-01-11T06:37:20.300Z,0
2018-01-11T06:38:29.983Z,0
2018-01-11T06:39:39.672Z,0
2018-01-11T06:40:49.657Z,0
2018-01-11T06:41:59.368Z,0
2018-01-11T06:43:09.320Z,0
2018-01-11T06:44:19.255Z,0
2018-01-11T06:45:28.936Z,0
2018-01-11T06:46:38.896Z,0
2018-01-11T06:47:48.324Z,0
2018-01-11T06:48:58.506Z,0
2018-01-11T06:50:08.483Z,0
2018-01-11T06:51:18.422Z,0
2018-01-11T06:52:28.152Z,0
2018-01-11T06:53:37.840Z,0
2018-01-11T06:54:48.060Z,0
2018-01-11T06:55:58.004Z,0
2018-01-11T06:57:07.959Z,0
2018-01-11T06:58:17.665Z,0
2018-01-11T06:59:27.628Z,0
2018-01-11T07:00:37.321Z,0
2018-01-11T07:01:47.284Z,0
2018-01-11T07:02:56.453Z,0
2018-01-11T07:04:06.411Z,0
2018-01-11T07:05:16.107Z,0
2018-01-11T07:06:26.068Z,0
2018-01-11T07:07:36.016Z,0
2018-01-11T07:08:45.970Z,0
2018-01-11T07:09:55.927Z,0
2018-01-11T07:11:05.644Z,0
2018-01-11T07:12:15.603Z,0
2018-01-11T07:13:25.557Z,0
2018-01-11T07:14:35.249Z,5
2018-01-11T07:15:45.207Z,5
2018-01-11T07:16:54.699Z,5
2018-01-11T07:18:04.902Z,5
2018-01-11T07:19:14.849Z,5
2018-01-11T07:20:24.866Z,5
2018-01-11T07:21:34.817Z,5
2018-01-11T07:22:44.765Z,5
2018-01-11T07:23:54.734Z,5
2018-01-11T07:25:04.176Z,5
2018-01-11T07:26:14.122Z,5
2018-01-11T07:27:23.568Z,5
2018-01-11T07:28:33.032Z,5
2018-01-11T07:29:42.720Z,5
2018-01-11T07:30:52.438Z,5
2018-01-11T07:32:02.400Z,5
2018-01-11T07:33:12.379Z,10
2018-01-11T07:34:22.420Z,10
2018-01-11T07:35:31.851Z,10
2018-01-11T07:36:41.864Z,10
2018-01-11T07:37:51.822Z,10
2018-01-11T07:39:01.515Z,10
2018-01-11T07:40:11.468Z,10
2018-01-11T07:41:21.432Z,15
2018-01-11T07:42:31.131Z,15
2018-01-11T07:43:41.091Z,15
2018-01-11T07:44:50.789Z,15
2018-01-11T07:46:00.752Z,15
2018-01-11T07:47:10.727Z,20
2018-01-11T07:48:20.416Z,20
2018-01-11T07:49:30.392Z,20
2018-01-11T07:50:40.368Z,20
2018-01-11T07:51:50.204Z,20
2018-01-11T07:52:59.891Z,20
2018-01-11T07:54:09.598Z,20
2018-01-11T07:55:19.567Z,25
2018-01-11T07:56:29.585Z,25
2018-01-11T07:57:38.967Z,25
2018-01-11T07:58:48.920Z,25
2018-01-11T07:59:58.867Z,25
2018-01-11T08:01:08.811Z,25
2018-01-11T08:02:18.773Z,25
2018-01-11T08:03:28.738Z,30
2018-01-11T08:04:38.446Z,30
2018-01-11T08:05:48.406Z,30
2018-01-11T08:06:58.363Z,30
2018-01-11T08:08:08.056Z,30
2018-01-11T08:09:18.009Z,30
2018-01-11T08:10:27.979Z,30
2018-01-11T08:11:37.936Z,30
2018-01-11T08:12:47.684Z,30
2018-01-11T08:13:57.379Z,35
2018-01-11T08:15:07.347Z,35
2018-01-11T08:16:17.301Z,35
2018-01-11T08:17:27.250Z,35
2018-01-11T08:18:37.209Z,35
2018-01-11T08:19:47.189Z,35
2018-01-11T08:20:57.175Z,35
2018-01-11T08:22:07.172Z,35
2018-01-11T08:23:17.137Z,40
2018-01-11T08:24:26.881Z,40
2018-01-11T08:25:36.562Z,40
2018-01-11T08:26:46.259Z,40
2018-01-11T08:27:56.247Z,45
2018-01-11T08:29:05.955Z,45
2018-01-11T08:30:15.921Z,50
2018-01-11T08:31:25.877Z,50
2018-01-11T08:32:35.833Z,50
2018-01-11T08:33:45.816Z,50
2018-01-11T08:34:55.518Z,50
2018-01-11T08:36:05.661Z,50
2018-01-11T08:37:15.627Z,50
2018-01-11T08:38:25.570Z,50
2018-01-11T08:39:35.006Z,55
2018-01-11T08:40:44.984Z,50
2018-01-11T08:41:55.225Z,55
2018-01-11T08:43:05.184Z,55
2018-01-11T08:44:15.122Z,55
2018-01-11T08:45:25.070Z,55
2018-01-11T08:46:34.763Z,55
2018-01-11T08:47:44.462Z,60
2018-01-11T08:48:54.196Z,55
2018-01-11T08:50:04.159Z,55
2018-01-11T08:51:14.169Z,55
2018-01-11T08:52:24.121Z,55
2018-01-11T08:53:34.088Z,60
2018-01-11T08:54:44.069Z,60
2018-01-11T08:55:54.078Z,60
2018-01-11T08:57:04.080Z,60
2018-01-11T08:58:14.065Z,60
2018-01-11T08:59:23.834Z,60
2018-01-11T09:00:33.804Z,60
2018-01-11T09:01:43.797Z,60
2018-01-11T09:02:53.747Z,55
2018-01-11T09:04:03.454Z,60
2018-01-11T09:05:13.438Z,55
2018-01-11T09:06:23.397Z,50
2018-01-11T09:07:33.131Z,45
2018-01-11T09:08:43.111Z,45
2018-01-11T09:09:53.102Z,45
2018-01-11T09:11:03.082Z,40
2018-01-11T09:12:13.050Z,40
2018-01-11T09:13:23.000Z,40
2018-01-11T09:14:32.716Z,40
2018-01-11T09:15:42.678Z,35
2018-01-11T09:16:52.657Z,35
2018-01-11T09:18:02.615Z,35
2018-01-11T09:19:12.335Z,35
2018-01-11T09:20:22.300Z,35
2018-01-11T09:21:32.282Z,35
2018-01-11T09:22:41.983Z,40
2018-01-11T09:23:51.969Z,40
2018-01-11T09:25:01.940Z,40
2018-01-11T09:26:11.679Z,40
2018-01-11T09:27:21.129Z,40
2018-01-11T09:28:30.828Z,45
2018-01-11T09:29:40.532Z,50
2018-01-11T09:30:50.245Z,50
2018-01-11T09:32:00.374Z,45
2018-01-11T09:33:10.473Z,50
2018-01-11T09:34:20.870Z,50
2018-01-11T09:35:30.369Z,50
2018-01-11T09:36:40.081Z,50
2018-01-11T09:37:50.021Z,55
2018-01-11T09:38:59.734Z,60
2018-01-11T09:40:09.695Z,65
2018-01-11T09:41:19.412Z,60
2018-01-11T09:42:29.106Z,60
2018-01-11T09:43:38.817Z,60
2018-01-11T09:44:48.833Z,60
2018-01-11T09:45:58.780Z,60
2018-01-11T09:47:07.992Z,60
2018-01-11T09:48:17.727Z,65
2018-01-11T09:49:27.431Z,65
2018-01-11T09:50:37.146Z,65
2018-01-11T09:51:47.097Z,65
2018-01-11T09:52:57.065Z,70
2018-01-11T09:54:06.761Z,70
2018-01-11T09:55:16.705Z,75
2018-01-11T09:56:26.666Z,75
2018-01-11T09:57:36.380Z,80
2018-01-11T09:58:46.087Z,80
2018-01-11T09:59:56.071Z,80
2018-01-11T10:01:05.861Z,80
2018-01-11T10:02:15.587Z,80
2018-01-11T10:03:25.562Z,80
2018-01-11T10:04:35.565Z,85
2018-01-11T10:05:45.526Z,85
2018-01-11T10:06:55.511Z,80
2018-01-11T10:08:05.538Z,80
2018-01-11T10:09:15.494Z,80
2018-01-11T10:10:25.266Z,80
2018-01-11T10:11:34.967Z,80
2018-01-11T10:12:44.931Z,80
2018-01-11T10:13:54.876Z,80
2018-01-11T10:15:04.860Z,80
2018-01-11T10:16:14.578Z,80
2018-01-11T10:17:24.280Z,75
2018-01-11T10:18:34.303Z,75
2018-01-11T10:19:44.265Z,80
2018-01-11T10:20:53.957Z,75
2018-01-11T10:22:03.694Z,75
2018-01-11T10:23:13.476Z,75
2018-01-11T10:24:22.966Z,70
2018-01-11T10:25:32.925Z,70
2018-01-11T10:26:42.895Z,65
2018-01-11T10:27:52.846Z,65
2018-01-11T10:29:02.826Z,60
2018-01-11T10:30:12.525Z,60
2018-01-11T10:31:22.472Z,60
2018-01-11T10:32:32.413Z,60
2018-01-11T10:33:42.108Z,60
2018-01-11T10:34:52.058Z,60
2018-01-11T10:36:02.078Z,60
2018-01-11T10:37:12.042Z,60
2018-01-11T10:38:21.992Z,60
2018-01-11T10:39:31.684Z,55
2018-01-11T10:40:41.646Z,55
2018-01-11T10:41:51.631Z,60
2018-01-11T10:43:01.324Z,60
2018-01-11T10:44:11.305Z,60
2018-01-11T10:45:21.280Z,65
2018-01-11T10:46:31.235Z,65
2018-01-11T10:47:41.195Z,70
2018-01-11T10:48:50.895Z,65
2018-01-11T10:50:00.610Z,65
2018-01-11T10:51:10.591Z,70
2018-01-11T10:52:20.557Z,70
2018-01-11T10:53:30.517Z,70
2018-01-11T10:54:40.492Z,70
2018-01-11T10:55:50.448Z,70
2018-01-11T10:57:00.160Z,75
2018-01-11T10:58:09.865Z,80
2018-01-11T10:59:19.846Z,75
2018-01-11T11:00:29.800Z,75
2018-01-11T11:01:39.768Z,70
2018-01-11T11:02:49.734Z,70
2018-01-11T11:03:59.472Z,65
2018-01-11T11:05:09.433Z,65
2018-01-11T11:06:19.377Z,70
2018-01-11T11:07:29.389Z,80
2018-01-11T11:08:39.121Z,80
2018-01-11T11:09:49.149Z,85
2018-01-11T11:10:58.606Z,90
2018-01-11T11:12:08.561Z,90
2018-01-11T11:13:18.575Z,95
2018-01-11T11:14:28.287Z,95
2018-01-11T11:15:38.260Z,95
2018-01-11T11:16:47.952Z,100
2018-01-11T11:17:57.913Z,100
2018-01-11T11:19:07.861Z,105
2018-01-11T11:20:17.806Z,110
2018-01-11T11:21:28.121Z,120
2018-01-11T11:22:38.021Z,120
2018-01-11T11:23:47.994Z,125
2018-01-11T11:24:57.947Z,125
2018-01-11T11:26:07.905Z,125
2018-01-11T11:27:17.852Z,125
2018-01-11T11:28:27.539Z,125
2018-01-11T11:29:37.290Z,125
2018-01-11T11:30:46.776Z,125
2018-01-11T11:31:56.737Z,125
2018-01-11T11:33:06.703Z,115
2018-01-11T11:34:16.650Z,115
2018-01-11T11:35:26.599Z,115
2018-01-11T11:36:36.311Z,115
2018-01-11T11:37:46.265Z,115
2018-01-11T11:38:56.229Z,130
2018-01-11T11:40:06.189Z,135
2018-01-11T11:41:15.901Z,150
2018-01-11T11:42:25.626Z,160
2018-01-11T11:43:35.316Z,165
2018-01-11T11:44:45.294Z,170
2018-01-11T11:45:55.296Z,190
2018-01-11T11:47:05.258Z,195
2018-01-11T11:48:15.223Z,200
2018-01-11T11:49:24.915Z,200
2018-01-11T11:50:34.609Z,200
2018-01-11T11:51:44.556Z,200
2018-01-11T11:52:54.541Z,200
2018-01-11T11:54:04.519Z,200
2018-01-11T11:55:14.490Z,210
2018-01-11T11:56:24.447Z,220
2018-01-11T11:57:34.155Z,220
2018-01-11T11:58:44.190Z,225
2018-01-11T11:59:54.163Z,230
2018-01-11T12:01:04.211Z,235
2018-01-11T12:02:14.195Z,230
2018-01-11T12:03:24.177Z,215
2018-01-11T12:04:34.140Z,210
2018-01-11T12:05:44.113Z,210
2018-01-11T12:06:54.077Z,220
2018-01-11T12:08:04.052Z,230
2018-01-11T12:09:14.071Z,235
2018-01-11T12:10:24.345Z,240
2018-01-11T12:11:34.721Z,240
2018-01-11T12:12:44.730Z,235
2018-01-11T12:13:54.500Z,220
2018-01-11T12:15:03.972Z,210
2018-01-11T12:16:13.963Z,200
2018-01-11T12:17:23.943Z,185
2018-01-11T12:18:33.958Z,185
2018-01-11T12:19:43.429Z,190
2018-01-11T12:20:53.411Z,200
2018-01-11T12:22:02.887Z,210
2018-01-11T12:23:12.613Z,220
2018-01-11T12:24:22.558Z,225
2018-01-11T12:25:32.252Z,225
2018-01-11T12:26:42.244Z,220
2018-01-11T12:27:52.265Z,225
2018-01-11T12:29:01.962Z,220
2018-01-11T12:30:11.471Z,220
2018-01-11T12:31:21.428Z,210
2018-01-11T12:32:31.140Z,210
2018-01-11T12:33:41.102Z,205
2018-01-11T12:34:51.076Z,200
2018-01-11T12:36:00.781Z,195
2018-01-11T12:37:10.701Z,190
2018-01-11T12:38:20.398Z,190
2018-01-11T12:39:30.363Z,190
2018-01-11T12:40:40.087Z,195
2018-01-11T12:41:50.053Z,180
2018-01-11T12:43:00.008Z,175
2018-01-11T12:44:09.974Z,175
2018-01-11T12:45:19.921Z,175
2018-01-11T12:46:29.630Z,170
2018-01-11T12:47:39.595Z,165
2018-01-11T12:48:49.551Z,170
2018-01-11T12:49:59.286Z,170
2018-01-11T12:51:09.040Z,160
2018-01-11T12:52:18.994Z,145
2018-01-11T12:53:28.714Z,130
2018-01-11T12:54:38.428Z,120
2018-01-11T12:55:48.120Z,105
2018-01-11T12:56:57.808Z,90
2018-01-11T12:58:07.560Z,80
2018-01-11T12:59:17.560Z,75
2018-01-11T13:00:27.517Z,75
2018-01-11T13:01:37.496Z,75
2018-01-11T13:02:47.195Z,75
2018-01-11T13:03:57.170Z,80
2018-01-11T13:05:07.126Z,85
2018-01-11T13:06:17.090Z,90
2018-01-11T13:07:27.048Z,90
2018-01-11T13:08:36.772Z,90
2018-01-11T13:09:46.747Z,90
2018-01-11T13:10:56.705Z,85
2018-01-11T13:12:06.422Z,80
2018-01-11T13:13:16.399Z,75
2018-01-11T13:14:26.382Z,75
2018-01-11T13:15:36.347Z,75
2018-01-11T13:16:46.345Z,70
2018-01-11T13:17:56.312Z,65
2018-01-11T13:19:06.294Z,65
2018-01-11T13:20:16.008Z,60
2018-01-11T13:21:26.015Z,60
2018-01-11T13:22:35.977Z,65
2018-01-11T13:23:45.918Z,70
2018-01-11T13:24:55.877Z,75
2018-01-11T13:26:05.562Z,75
2018-01-11T13:27:15.515Z,70
2018-01-11T13:28:24.995Z,60
2018-01-11T13:29:34.971Z,60
2018-01-11T13:30:44.421Z,55
2018-01-11T13:31:54.394Z,55
2018-01-11T13:33:04.094Z,55
2018-01-11T13:34:13.774Z,55
2018-01-11T13:35:23.762Z,55
2018-01-11T13:36:33.717Z,60
2018-01-11T13:37:43.435Z,65
2018-01-11T13:38:53.126Z,65
2018-01-11T13:40:02.828Z,65
2018-01-11T13:41:12.771Z,65
2018-01-11T13:42:22.492Z,60
2018-01-11T13:43:32.496Z,60
2018-01-11T13:44:42.438Z,60
2018-01-11T13:45:52.153Z,60
2018-01-11T13:47:02.163Z,60
2018-01-11T13:48:12.136Z,60
2018-01-11T13:49:21.585Z,60
2018-01-11T13:50:31.557Z,60
2018-01-11T13:51:41.254Z,65
2018-01-11T13:52:51.025Z,65
2018-01-11T13:54:00.990Z,65
2018-01-11T13:55:10.944Z,65
2018-01-11T13:56:20.645Z,65
2018-01-11T13:57:30.348Z,70
2018-01-11T13:58:40.048Z,75
2018-01-11T13:59:50.060Z,75
2018-01-11T14:00:59.749Z,80
2018-01-11T14:02:09.724Z,75
2018-01-11T14:03:19.672Z,75
2018-01-11T14:04:29.686Z,75
2018-01-11T14:05:39.124Z,75
2018-01-11T14:06:49.109Z,75
2018-01-11T14:07:58.556Z,75
2018-01-11T14:09:07.985Z,75
2018-01-11T14:10:17.980Z,80
2018-01-11T14:11:27.960Z,80
2018-01-11T14:12:37.731Z,80
2018-01-11T14:13:47.692Z,80
2018-01-11T14:14:57.403Z,85
2018-01-11T14:16:07.396Z,80
2018-01-11T14:17:17.094Z,80
2018-01-11T14:18:26.852Z,75
2018-01-11T14:19:36.805Z,75
2018-01-11T14:20:46.246Z,75
2018-01-11T14:21:55.954Z,70
2018-01-11T14:23:05.911Z,65
2018-01-11T14:24:15.354Z,60
2018-01-11T14:25:25.303Z,60
2018-01-11T14:26:35.248Z,60
2018-01-11T14:27:45.204Z,55
2018-01-11T14:28:54.911Z,50
2018-01-11T14:30:04.863Z,40
2018-01-11T14:31:14.917Z,35
2018-01-11T14:32:24.631Z,30
2018-01-11T14:33:34.356Z,30
2018-01-11T14:34:44.315Z,25
2018-01-11T14:35:54.264Z,25
2018-01-11T14:37:04.018Z,25
2018-01-11T14:38:13.989Z,25
2018-01-11T14:39:23.963Z,25
2018-01-11T14:40:33.929Z,20
2018-01-11T14:41:43.626Z,20
2018-01-11T14:42:53.337Z,20
2018-01-11T14:44:03.292Z,20
2018-01-11T14:45:12.990Z,20
2018-01-11T14:46:22.694Z,20
2018-01-11T14:47:32.651Z,15
2018-01-11T14:48:42.388Z,15
2018-01-11T14:49:52.110Z,15
2018-01-11T14:51:02.071Z,15
2018-01-11T14:52:12.175Z,10
2018-01-11T14:53:22.132Z,10
2018-01-11T14:54:31.580Z,10
2018-01-11T14:55:41.545Z,10
2018-01-11T14:56:51.505Z,5
2018-01-11T14:58:01.455Z,5
2018-01-11T14:59:11.161Z,5
2018-01-11T15:00:20.878Z,5
2018-01-11T15:01:30.584Z,5
2018-01-11T15:02:40.545Z,5
2018-01-11T15:03:50.517Z,5
2018-01-11T15:05:00.207Z,5
2018-01-11T15:06:10.166Z,5
2018-01-11T15:07:20.127Z,5
2018-01-11T15:08:30.085Z,0
2018-01-11T15:09:40.059Z,0
2018-01-11T15:10:49.771Z,0
2018-01-11T15:11:59.741Z,0
2018-01-11T15:13:09.698Z,0
2018-01-11T15:14:19.655Z,0
2018-01-11T15:15:29.622Z,0
2018-01-11T15:16:39.574Z,0
2018-01-11T15:17:49.544Z,0
2018-01-11T15:18:59.261Z,0
2018-01-11T15:20:09.230Z,0
2018-01-11T15:21:18.931Z,0
2018-01-11T15:22:28.900Z,0
2018-01-11T15:23:38.864Z,0
2018-01-11T15:24:48.821Z,0
2018-01-11T15:25:58.773Z,0
2018-01-11T15:27:08.521Z,0
2018-01-11T15:28:18.492Z,0
2018-01-11T15:29:28.684Z,0
2018-01-11T15:30:38.650Z,0
2018-01-11T15:31:48.365Z,0
2018-01-11T15:32:58.400Z,0
2018-01-11T15:34:08.106Z,0
2018-01-11T15:35:17.813Z,0
2018-01-11T15:36:27.272Z,0
2018-01-11T15:37:36.952Z,0
2018-01-11T15:38:46.427Z,0
2018-01-11T15:39:56.374Z,0
2018-01-11T15:41:06.328Z,0
2018-01-11T15:42:16.030Z,0
2018-01-11T15:43:25.757Z,0
2018-01-11T15:44:35.471Z,0
2018-01-11T15:45:45.424Z,0
2018-01-11T15:46:54.855Z,0
2018-01-11T15:48:04.862Z,0
2018-01-11T15:49:14.823Z,0
2018-01-11T15:50:24.860Z,0
2018-01-11T15:51:34.815Z,0
2018-01-11T15:52:44.774Z,0
2018-01-11T15:53:54.741Z,0
2018-01-11T15:55:04.474Z,0
2018-01-11T15:56:13.941Z,0
2018-01-11T15:57:23.894Z,0
2018-01-11T15:58:33.897Z,0
2018-01-11T15:59:43.663Z,0
2018-01-11T16:00:53.380Z,0
2018-01-11T16:02:03.411Z,0
2018-01-11T16:03:13.393Z,0
2018-01-11T16:04:22.854Z,0
2018-01-11T16:05:32.567Z,0
2018-01-11T16:06:42.534Z,0
2018-01-11T16:07:51.997Z,0
2018-01-11T16:09:01.695Z,0
2018-01-11T16:10:11.404Z,0
2018-01-11T16:11:21.373Z,0
2018-01-11T16:12:31.406Z,0
2018-01-11T16:13:41.398Z,0
2018-01-11T16:14:51.354Z,0
2018-01-11T16:16:01.050Z,0
2018-01-11T16:17:11.018Z,0
2018-01-11T16:18:21.049Z,0
2018-01-11T16:19:31.007Z,0
2018-01-11T16:20:40.966Z,0
2018-01-11T16:21:51.172Z,0
2018-01-11T16:23:01.133Z,0
2018-01-11T16:24:11.155Z,0
2018-01-11T16:25:21.119Z,0
2018-01-11T16:26:31.088Z,0
2018-01-11T16:27:40.792Z,0
2018-01-11T16:28:50.751Z,0
2018-01-11T16:30:00.445Z,0
2018-01-11T16:31:10.137Z,0
2018-01-11T16:32:19.858Z,0
2018-01-11T16:33:29.808Z,0
2018-01-11T16:34:39.784Z,0
2018-01-11T16:35:49.500Z,0
2018-01-11T16:36:59.538Z,0
2018-01-11T16:38:09.535Z,0
2018-01-11T16:39:19.488Z,0
2018-01-11T16:40:29.447Z,0
2018-01-11T16:41:39.146Z,0
2018-01-11T16:42:49.112Z,0
2018-01-11T16:43:58.842Z,0
2018-01-11T16:45:08.566Z,0
2018-01-11T16:46:18.548Z,0
2018-01-11T16:47:28.509Z,0
2018-01-11T16:48:38.202Z,0
2018-01-11T16:49:48.152Z,0
2018-01-11T16:50:58.104Z,0
2018-01-11T16:52:08.047Z,0
2018-01-11T16:53:18.009Z,0